LUA weather

Lukla Airport
Lukla, Sagarmatha, Nepal

Public forecast

Using degrees Celsius for public forecast. Weather courtesy of forecast.io.

Closest aviation weather report (METAR) to Lukla Airport

Closest report is Tribhuvan International Airport, 72.9 nm (135.0 km) W. Retrieved 2019/10/18 19:20 UTC (28 minutes ago):

VNKT 181920Z 11003KT 7000 FEW015 SCT030 BKN100 18/17 Q1022 NOSIG

Closest aviation forecast (TAF) to Lukla Airport

Closest forecast is Tribhuvan International Airport, 72.9 nm (135.0 km) W. Retrieved 2019/10/18 18:39 UTC (1 hour ago):

TAF TAF VNKT 181700Z 1818/1918 16003KT 7000 FEW015 SCT030 BKN100 BECMG 1900/1902 00000KT 5000 BR FEW010 SCT025 BECMG 1904/1905 13004KT 6000 FEW015 SCT025 BECMG 1907/1909 25008KT 8000 FEW020 SCT025 BECMG 1913/1914 14003KT 6000 FEW015 SCT030